sensor_id;sensor_type;location;lat;lon;timestamp;P1;durP1;ratioP1;P2;durP2;ratioP2
79076;SDS011;68477;42.698;23.342;2023-12-29T00:01:23;149.02;;;75.63;;
79076;SDS011;68477;42.698;23.342;2023-12-29T00:03:48;153.00;;;71.80;;
79076;SDS011;68477;42.698;23.342;2023-12-29T00:06:14;155.73;;;80.00;;
79076;SDS011;68477;42.698;23.342;2023-12-29T00:08:39;143.88;;;79.15;;
79076;SDS011;68477;42.698;23.342;2023-12-29T00:11:05;145.00;;;73.32;;
79076;SDS011;68477;42.698;23.342;2023-12-29T00:13:30;141.90;;;74.32;;
79076;SDS011;68477;42.698;23.342;2023-12-29T00:15:56;131.52;;;63.70;;
79076;SDS011;68477;42.698;23.342;2023-12-29T00:18:21;151.43;;;76.07;;
79076;SDS011;68477;42.698;23.342;2023-12-29T00:20:47;135.50;;;68.43;;
79076;SDS011;68477;42.698;23.342;2023-12-29T00:23:13;142.48;;;75.15;;
79076;SDS011;68477;42.698;23.342;2023-12-29T00:25:38;145.10;;;70.47;;
79076;SDS011;68477;42.698;23.342;2023-12-29T00:28:05;138.90;;;76.13;;
79076;SDS011;68477;42.698;23.342;2023-12-29T00:30:30;142.52;;;69.65;;
79076;SDS011;68477;42.698;23.342;2023-12-29T00:32:56;129.35;;;71.93;;
79076;SDS011;68477;42.698;23.342;2023-12-29T00:35:22;130.98;;;67.90;;
79076;SDS011;68477;42.698;23.342;2023-12-29T00:37:47;140.13;;;69.40;;
79076;SDS011;68477;42.698;23.342;2023-12-29T00:40:15;143.82;;;72.47;;
79076;SDS011;68477;42.698;23.342;2023-12-29T00:42:40;143.70;;;74.78;;
79076;SDS011;68477;42.698;23.342;2023-12-29T00:45:06;138.98;;;73.55;;
79076;SDS011;68477;42.698;23.342;2023-12-29T00:47:32;131.13;;;65.47;;
79076;SDS011;68477;42.698;23.342;2023-12-29T00:49:58;134.45;;;70.78;;
79076;SDS011;68477;42.698;23.342;2023-12-29T00:52:23;134.00;;;67.55;;
79076;SDS011;68477;42.698;23.342;2023-12-29T00:54:49;137.98;;;68.95;;
79076;SDS011;68477;42.698;23.342;2023-12-29T00:57:14;130.02;;;69.13;;
79076;SDS011;68477;42.698;23.342;2023-12-29T00:59:40;125.63;;;67.18;;
79076;SDS011;68477;42.698;23.342;2023-12-29T01:02:06;116.13;;;61.50;;
79076;SDS011;68477;42.698;23.342;2023-12-29T01:04:32;131.00;;;64.95;;
79076;SDS011;68477;42.698;23.342;2023-12-29T01:06:58;114.82;;;63.70;;
79076;SDS011;68477;42.698;23.342;2023-12-29T01:09:26;138.13;;;67.68;;
79076;SDS011;68477;42.698;23.342;2023-12-29T01:11:51;127.85;;;60.45;;
79076;SDS011;68477;42.698;23.342;2023-12-29T01:14:17;131.68;;;61.42;;
79076;SDS011;68477;42.698;23.342;2023-12-29T01:16:42;141.27;;;69.18;;
79076;SDS011;68477;42.698;23.342;2023-12-29T01:19:08;135.43;;;65.57;;
79076;SDS011;68477;42.698;23.342;2023-12-29T01:21:33;133.40;;;64.40;;
79076;SDS011;68477;42.698;23.342;2023-12-29T01:24:02;128.82;;;65.53;;
79076;SDS011;68477;42.698;23.342;2023-12-29T01:26:32;123.95;;;63.03;;
79076;SDS011;68477;42.698;23.342;2023-12-29T01:29:02;125.15;;;66.60;;
79076;SDS011;68477;42.698;23.342;2023-12-29T01:31:30;120.65;;;61.88;;
79076;SDS011;68477;42.698;23.342;2023-12-29T01:33:56;126.93;;;64.75;;
79076;SDS011;68477;42.698;23.342;2023-12-29T01:36:22;127.65;;;61.90;;
79076;SDS011;68477;42.698;23.342;2023-12-29T01:38:47;124.35;;;63.22;;
79076;SDS011;68477;42.698;23.342;2023-12-29T01:41:13;119.70;;;61.55;;
79076;SDS011;68477;42.698;23.342;2023-12-29T01:46:23;119.75;;;64.68;;
79076;SDS011;68477;42.698;23.342;2023-12-29T01:48:53;131.55;;;62.60;;
79076;SDS011;68477;42.698;23.342;2023-12-29T01:51:18;123.65;;;59.45;;
79076;SDS011;68477;42.698;23.342;2023-12-29T01:53:47;119.82;;;60.58;;
79076;SDS011;68477;42.698;23.342;2023-12-29T01:56:13;121.97;;;58.72;;
79076;SDS011;68477;42.698;23.342;2023-12-29T01:58:39;131.10;;;60.75;;
79076;SDS011;68477;42.698;23.342;2023-12-29T02:01:05;113.90;;;56.15;;
79076;SDS011;68477;42.698;23.342;2023-12-29T02:03:32;121.45;;;60.10;;
79076;SDS011;68477;42.698;23.342;2023-12-29T02:05:59;125.63;;;57.63;;
79076;SDS011;68477;42.698;23.342;2023-12-29T02:08:24;115.72;;;58.08;;
79076;SDS011;68477;42.698;23.342;2023-12-29T02:10:50;118.38;;;59.30;;
79076;SDS011;68477;42.698;23.342;2023-12-29T02:13:16;121.10;;;65.82;;
79076;SDS011;68477;42.698;23.342;2023-12-29T02:15:42;126.05;;;65.82;;
79076;SDS011;68477;42.698;23.342;2023-12-29T02:18:10;120.55;;;59.08;;
79076;SDS011;68477;42.698;23.342;2023-12-29T02:20:40;115.20;;;60.00;;
79076;SDS011;68477;42.698;23.342;2023-12-29T02:23:06;113.60;;;60.88;;
79076;SDS011;68477;42.698;23.342;2023-12-29T02:25:32;123.10;;;60.78;;
79076;SDS011;68477;42.698;23.342;2023-12-29T02:33:19;110.85;;;57.67;;
79076;SDS011;68477;42.698;23.342;2023-12-29T02:35:47;114.68;;;54.45;;
79076;SDS011;68477;42.698;23.342;2023-12-29T02:38:16;114.22;;;57.33;;
79076;SDS011;68477;42.698;23.342;2023-12-29T02:40:42;117.25;;;59.53;;
79076;SDS011;68477;42.698;23.342;2023-12-29T02:43:09;108.03;;;54.47;;
79076;SDS011;68477;42.698;23.342;2023-12-29T02:45:35;106.78;;;54.65;;
79076;SDS011;68477;42.698;23.342;2023-12-29T02:48:00;94.30;;;46.47;;
79076;SDS011;68477;42.698;23.342;2023-12-29T02:50:26;90.75;;;44.30;;
79076;SDS011;68477;42.698;23.342;2023-12-29T02:52:52;89.55;;;45.90;;
79076;SDS011;68477;42.698;23.342;2023-12-29T02:55:17;91.53;;;45.67;;
79076;SDS011;68477;42.698;23.342;2023-12-29T02:57:43;98.75;;;51.85;;
79076;SDS011;68477;42.698;23.342;2023-12-29T03:00:09;94.82;;;47.08;;
79076;SDS011;68477;42.698;23.342;2023-12-29T03:02:35;98.22;;;49.47;;
79076;SDS011;68477;42.698;23.342;2023-12-29T03:05:01;92.43;;;45.33;;
79076;SDS011;68477;42.698;23.342;2023-12-29T03:07:27;88.30;;;43.70;;
79076;SDS011;68477;42.698;23.342;2023-12-29T03:09:52;84.88;;;43.50;;
79076;SDS011;68477;42.698;23.342;2023-12-29T03:12:18;88.00;;;43.08;;
79076;SDS011;68477;42.698;23.342;2023-12-29T03:14:44;80.22;;;41.55;;
79076;SDS011;68477;42.698;23.342;2023-12-29T03:17:12;91.85;;;44.67;;
79076;SDS011;68477;42.698;23.342;2023-12-29T03:19:38;100.03;;;46.72;;
79076;SDS011;68477;42.698;23.342;2023-12-29T03:22:03;85.07;;;43.53;;
79076;SDS011;68477;42.698;23.342;2023-12-29T03:24:29;88.30;;;47.72;;
79076;SDS011;68477;42.698;23.342;2023-12-29T03:26:55;90.70;;;47.22;;
79076;SDS011;68477;42.698;23.342;2023-12-29T03:29:20;95.53;;;47.70;;
79076;SDS011;68477;42.698;23.342;2023-12-29T03:31:46;88.00;;;42.55;;
79076;SDS011;68477;42.698;23.342;2023-12-29T03:34:11;81.40;;;39.97;;
79076;SDS011;68477;42.698;23.342;2023-12-29T03:36:37;78.85;;;37.80;;
79076;SDS011;68477;42.698;23.342;2023-12-29T03:39:02;80.32;;;37.80;;
79076;SDS011;68477;42.698;23.342;2023-12-29T03:41:28;84.00;;;35.70;;
79076;SDS011;68477;42.698;23.342;2023-12-29T03:43:53;70.45;;;37.08;;
79076;SDS011;68477;42.698;23.342;2023-12-29T03:46:21;72.85;;;34.08;;
79076;SDS011;68477;42.698;23.342;2023-12-29T03:48:47;74.13;;;35.25;;
79076;SDS011;68477;42.698;23.342;2023-12-29T03:51:14;72.15;;;36.08;;
79076;SDS011;68477;42.698;23.342;2023-12-29T03:53:40;71.65;;;31.85;;
79076;SDS011;68477;42.698;23.342;2023-12-29T03:56:06;65.65;;;31.90;;
79076;SDS011;68477;42.698;23.342;2023-12-29T03:58:33;72.25;;;36.92;;
79076;SDS011;68477;42.698;23.342;2023-12-29T04:01:00;84.22;;;39.17;;
79076;SDS011;68477;42.698;23.342;2023-12-29T04:03:25;70.32;;;34.10;;
79076;SDS011;68477;42.698;23.342;2023-12-29T04:05:51;71.78;;;34.28;;
79076;SDS011;68477;42.698;23.342;2023-12-29T04:08:16;78.78;;;38.05;;
79076;SDS011;68477;42.698;23.342;2023-12-29T04:10:42;74.63;;;35.28;;
79076;SDS011;68477;42.698;23.342;2023-12-29T04:13:07;73.53;;;33.00;;
79076;SDS011;68477;42.698;23.342;2023-12-29T04:15:33;73.72;;;39.53;;
79076;SDS011;68477;42.698;23.342;2023-12-29T04:17:59;78.30;;;34.83;;
79076;SDS011;68477;42.698;23.342;2023-12-29T04:20:24;75.10;;;35.08;;
79076;SDS011;68477;42.698;23.342;2023-12-29T04:22:50;71.50;;;36.13;;
79076;SDS011;68477;42.698;23.342;2023-12-29T04:25:16;67.50;;;38.05;;
79076;SDS011;68477;42.698;23.342;2023-12-29T04:27:41;64.70;;;31.05;;
79076;SDS011;68477;42.698;23.342;2023-12-29T04:30:07;74.80;;;36.78;;
79076;SDS011;68477;42.698;23.342;2023-12-29T04:32:34;66.75;;;35.25;;
79076;SDS011;68477;42.698;23.342;2023-12-29T10:11:13;63.25;;;38.00;;
79076;SDS011;68477;42.698;23.342;2023-12-29T10:13:42;55.72;;;30.58;;
79076;SDS011;68477;42.698;23.342;2023-12-29T10:24:37;58.38;;;31.83;;
79076;SDS011;68477;42.698;23.342;2023-12-29T10:27:03;57.22;;;31.20;;
79076;SDS011;68477;42.698;23.342;2023-12-29T10:29:29;59.97;;;30.67;;
79076;SDS011;68477;42.698;23.342;2023-12-29T10:31:55;59.83;;;31.00;;
79076;SDS011;68477;42.698;23.342;2023-12-29T10:34:21;56.60;;;31.63;;
79076;SDS011;68477;42.698;23.342;2023-12-29T10:37:03;56.88;;;30.95;;
79076;SDS011;68477;42.698;23.342;2023-12-29T10:39:34;59.50;;;33.22;;
79076;SDS011;68477;42.698;23.342;2023-12-29T10:44:26;56.47;;;31.25;;
79076;SDS011;68477;42.698;23.342;2023-12-29T10:46:51;56.03;;;30.75;;
79076;SDS011;68477;42.698;23.342;2023-12-29T10:49:17;62.10;;;32.20;;
79076;SDS011;68477;42.698;23.342;2023-12-29T10:51:43;59.25;;;31.55;;
79076;SDS011;68477;42.698;23.342;2023-12-29T10:54:09;59.65;;;32.55;;
79076;SDS011;68477;42.698;23.342;2023-12-29T10:56:44;61.83;;;34.08;;
79076;SDS011;68477;42.698;23.342;2023-12-29T10:59:10;58.85;;;31.20;;
79076;SDS011;68477;42.698;23.342;2023-12-29T11:01:37;59.53;;;32.60;;
79076;SDS011;68477;42.698;23.342;2023-12-29T11:04:04;65.22;;;30.77;;
79076;SDS011;68477;42.698;23.342;2023-12-29T11:06:40;52.72;;;28.88;;
79076;SDS011;68477;42.698;23.342;2023-12-29T11:09:10;54.30;;;31.02;;
79076;SDS011;68477;42.698;23.342;2023-12-29T11:11:36;57.20;;;30.05;;
79076;SDS011;68477;42.698;23.342;2023-12-29T11:14:02;50.90;;;31.80;;
79076;SDS011;68477;42.698;23.342;2023-12-29T11:16:29;54.10;;;28.38;;
79076;SDS011;68477;42.698;23.342;2023-12-29T11:18:56;62.22;;;32.08;;
79076;SDS011;68477;42.698;23.342;2023-12-29T11:21:25;61.33;;;31.08;;
79076;SDS011;68477;42.698;23.342;2023-12-29T11:31:09;66.22;;;35.85;;
79076;SDS011;68477;42.698;23.342;2023-12-29T11:33:39;60.63;;;30.80;;
79076;SDS011;68477;42.698;23.342;2023-12-29T11:36:12;52.17;;;30.63;;
79076;SDS011;68477;42.698;23.342;2023-12-29T11:38:57;57.58;;;29.83;;
79076;SDS011;68477;42.698;23.342;2023-12-29T11:43:59;59.33;;;33.58;;
79076;SDS011;68477;42.698;23.342;2023-12-29T11:46:44;61.50;;;31.98;;
79076;SDS011;68477;42.698;23.342;2023-12-29T11:49:10;57.15;;;33.38;;
79076;SDS011;68477;42.698;23.342;2023-12-29T11:51:37;58.63;;;32.47;;
79076;SDS011;68477;42.698;23.342;2023-12-29T11:54:06;60.33;;;32.30;;
79076;SDS011;68477;42.698;23.342;2023-12-29T11:56:35;53.90;;;33.40;;
79076;SDS011;68477;42.698;23.342;2023-12-29T11:59:15;53.45;;;30.58;;
79076;SDS011;68477;42.698;23.342;2023-12-29T12:01:47;57.35;;;32.85;;
79076;SDS011;68477;42.698;23.342;2023-12-29T12:12:46;58.95;;;34.05;;
79076;SDS011;68477;42.698;23.342;2023-12-29T12:18:02;63.90;;;32.92;;
79076;SDS011;68477;42.698;23.342;2023-12-29T12:20:31;59.08;;;34.28;;
79076;SDS011;68477;42.698;23.342;2023-12-29T12:22:57;52.75;;;31.23;;
79076;SDS011;68477;42.698;23.342;2023-12-29T12:25:25;53.63;;;31.67;;
79076;SDS011;68477;42.698;23.342;2023-12-29T12:27:54;52.50;;;30.52;;
79076;SDS011;68477;42.698;23.342;2023-12-29T12:30:20;50.40;;;30.40;;
79076;SDS011;68477;42.698;23.342;2023-12-29T12:32:46;51.50;;;31.38;;
79076;SDS011;68477;42.698;23.342;2023-12-29T12:35:21;54.05;;;30.60;;
79076;SDS011;68477;42.698;23.342;2023-12-29T12:37:47;57.78;;;31.58;;
79076;SDS011;68477;42.698;23.342;2023-12-29T12:40:24;53.20;;;31.95;;
79076;SDS011;68477;42.698;23.342;2023-12-29T12:42:51;59.97;;;34.47;;
79076;SDS011;68477;42.698;23.342;2023-12-29T12:45:17;55.05;;;31.10;;
79076;SDS011;68477;42.698;23.342;2023-12-29T12:47:51;57.83;;;34.83;;
79076;SDS011;68477;42.698;23.342;2023-12-29T12:50:19;59.65;;;31.88;;
79076;SDS011;68477;42.698;23.342;2023-12-29T12:52:45;66.88;;;35.42;;
79076;SDS011;68477;42.698;23.342;2023-12-29T12:55:12;66.35;;;35.13;;
79076;SDS011;68477;42.698;23.342;2023-12-29T12:57:39;54.30;;;31.85;;
79076;SDS011;68477;42.698;23.342;2023-12-29T13:00:06;62.58;;;35.85;;
79076;SDS011;68477;42.698;23.342;2023-12-29T13:02:34;61.85;;;33.33;;
79076;SDS011;68477;42.698;23.342;2023-12-29T13:05:00;64.97;;;33.80;;
79076;SDS011;68477;42.698;23.342;2023-12-29T13:07:30;62.33;;;35.72;;
79076;SDS011;68477;42.698;23.342;2023-12-29T13:09:56;54.85;;;33.10;;
79076;SDS011;68477;42.698;23.342;2023-12-29T13:12:23;54.30;;;32.47;;
79076;SDS011;68477;42.698;23.342;2023-12-29T13:14:49;58.67;;;31.52;;
79076;SDS011;68477;42.698;23.342;2023-12-29T13:17:16;58.78;;;33.97;;
79076;SDS011;68477;42.698;23.342;2023-12-29T13:19:43;68.07;;;35.63;;
79076;SDS011;68477;42.698;23.342;2023-12-29T13:22:09;55.90;;;33.88;;
79076;SDS011;68477;42.698;23.342;2023-12-29T13:24:42;62.97;;;34.88;;
79076;SDS011;68477;42.698;23.342;2023-12-29T13:27:10;63.85;;;33.63;;
79076;SDS011;68477;42.698;23.342;2023-12-29T13:29:39;58.03;;;32.13;;
79076;SDS011;68477;42.698;23.342;2023-12-29T13:35:06;71.05;;;34.58;;
79076;SDS011;68477;42.698;23.342;2023-12-29T13:38:05;66.20;;;36.40;;
79076;SDS011;68477;42.698;23.342;2023-12-29T13:40:38;62.45;;;35.95;;
79076;SDS011;68477;42.698;23.342;2023-12-29T13:43:09;63.70;;;34.17;;
79076;SDS011;68477;42.698;23.342;2023-12-29T13:45:38;62.10;;;35.95;;
79076;SDS011;68477;42.698;23.342;2023-12-29T13:48:06;59.63;;;36.28;;
79076;SDS011;68477;42.698;23.342;2023-12-29T13:50:33;74.78;;;37.78;;
79076;SDS011;68477;42.698;23.342;2023-12-29T13:52:59;74.97;;;38.10;;
79076;SDS011;68477;42.698;23.342;2023-12-29T13:55:25;74.30;;;39.13;;
79076;SDS011;68477;42.698;23.342;2023-12-29T13:57:51;74.88;;;38.50;;
79076;SDS011;68477;42.698;23.342;2023-12-29T14:00:17;68.45;;;39.40;;
79076;SDS011;68477;42.698;23.342;2023-12-29T14:05:34;66.40;;;39.72;;
79076;SDS011;68477;42.698;23.342;2023-12-29T14:08:04;75.13;;;39.63;;
79076;SDS011;68477;42.698;23.342;2023-12-29T14:10:35;70.47;;;36.92;;
79076;SDS011;68477;42.698;23.342;2023-12-29T14:13:08;78.30;;;40.03;;
79076;SDS011;68477;42.698;23.342;2023-12-29T14:15:36;79.18;;;39.60;;
79076;SDS011;68477;42.698;23.342;2023-12-29T14:21:46;74.90;;;38.65;;
79076;SDS011;68477;42.698;23.342;2023-12-29T14:24:07;76.25;;;38.33;;
79076;SDS011;68477;42.698;23.342;2023-12-29T14:26:42;70.30;;;38.83;;
79076;SDS011;68477;42.698;23.342;2023-12-29T14:29:17;72.43;;;38.97;;
79076;SDS011;68477;42.698;23.342;2023-12-29T14:31:44;71.85;;;37.03;;
79076;SDS011;68477;42.698;23.342;2023-12-29T14:34:10;70.70;;;38.25;;
79076;SDS011;68477;42.698;23.342;2023-12-29T14:36:38;81.30;;;36.72;;
79076;SDS011;68477;42.698;23.342;2023-12-29T14:39:05;69.90;;;36.65;;
79076;SDS011;68477;42.698;23.342;2023-12-29T14:41:31;77.15;;;38.80;;
79076;SDS011;68477;42.698;23.342;2023-12-29T14:43:57;79.80;;;38.83;;
79076;SDS011;68477;42.698;23.342;2023-12-29T14:46:24;73.57;;;35.92;;
79076;SDS011;68477;42.698;23.342;2023-12-29T14:48:50;72.80;;;36.35;;
79076;SDS011;68477;42.698;23.342;2023-12-29T14:51:19;76.43;;;39.67;;
79076;SDS011;68477;42.698;23.342;2023-12-29T14:53:45;84.18;;;37.75;;
79076;SDS011;68477;42.698;23.342;2023-12-29T14:56:12;76.68;;;38.05;;
79076;SDS011;68477;42.698;23.342;2023-12-29T14:58:39;71.75;;;36.38;;
79076;SDS011;68477;42.698;23.342;2023-12-29T15:01:05;65.45;;;35.28;;
79076;SDS011;68477;42.698;23.342;2023-12-29T15:03:32;66.53;;;34.83;;
79076;SDS011;68477;42.698;23.342;2023-12-29T15:05:58;71.72;;;34.83;;
79076;SDS011;68477;42.698;23.342;2023-12-29T15:08:26;68.72;;;35.63;;
79076;SDS011;68477;42.698;23.342;2023-12-29T15:10:53;66.55;;;36.85;;
79076;SDS011;68477;42.698;23.342;2023-12-29T15:13:19;70.40;;;35.40;;
79076;SDS011;68477;42.698;23.342;2023-12-29T15:15:44;77.07;;;37.95;;
79076;SDS011;68477;42.698;23.342;2023-12-29T15:18:10;66.05;;;37.15;;
79076;SDS011;68477;42.698;23.342;2023-12-29T15:20:35;72.65;;;36.10;;
79076;SDS011;68477;42.698;23.342;2023-12-29T15:23:01;77.25;;;36.50;;
79076;SDS011;68477;42.698;23.342;2023-12-29T15:25:27;70.20;;;35.90;;
79076;SDS011;68477;42.698;23.342;2023-12-29T15:27:53;72.60;;;35.50;;
79076;SDS011;68477;42.698;23.342;2023-12-29T15:30:19;72.88;;;35.05;;
79076;SDS011;68477;42.698;23.342;2023-12-29T15:32:44;67.90;;;35.97;;
79076;SDS011;68477;42.698;23.342;2023-12-29T15:35:11;78.13;;;36.17;;
79076;SDS011;68477;42.698;23.342;2023-12-29T15:37:36;65.13;;;36.92;;
79076;SDS011;68477;42.698;23.342;2023-12-29T15:40:02;67.80;;;34.35;;
79076;SDS011;68477;42.698;23.342;2023-12-29T15:42:31;66.90;;;33.50;;
79076;SDS011;68477;42.698;23.342;2023-12-29T15:44:56;67.50;;;34.22;;
79076;SDS011;68477;42.698;23.342;2023-12-29T15:47:22;65.63;;;33.20;;
79076;SDS011;68477;42.698;23.342;2023-12-29T15:49:47;62.38;;;32.63;;
79076;SDS011;68477;42.698;23.342;2023-12-29T15:52:13;70.45;;;34.55;;
79076;SDS011;68477;42.698;23.342;2023-12-29T15:54:39;76.22;;;34.40;;
79076;SDS011;68477;42.698;23.342;2023-12-29T15:57:04;70.90;;;35.20;;
79076;SDS011;68477;42.698;23.342;2023-12-29T15:59:33;62.03;;;34.08;;
79076;SDS011;68477;42.698;23.342;2023-12-29T16:01:59;60.45;;;32.38;;
79076;SDS011;68477;42.698;23.342;2023-12-29T16:04:26;59.00;;;32.42;;
79076;SDS011;68477;42.698;23.342;2023-12-29T16:06:55;67.10;;;33.00;;
79076;SDS011;68477;42.698;23.342;2023-12-29T16:09:23;78.22;;;33.63;;
79076;SDS011;68477;42.698;23.342;2023-12-29T16:11:48;57.47;;;30.90;;
79076;SDS011;68477;42.698;23.342;2023-12-29T16:14:14;63.58;;;28.77;;
79076;SDS011;68477;42.698;23.342;2023-12-29T16:16:42;63.50;;;32.28;;
79076;SDS011;68477;42.698;23.342;2023-12-29T16:19:08;65.80;;;30.15;;
79076;SDS011;68477;42.698;23.342;2023-12-29T16:21:36;60.45;;;30.17;;
79076;SDS011;68477;42.698;23.342;2023-12-29T16:24:04;57.85;;;28.65;;
79076;SDS011;68477;42.698;23.342;2023-12-29T16:26:34;62.50;;;31.58;;
79076;SDS011;68477;42.698;23.342;2023-12-29T16:29:01;61.28;;;29.70;;
79076;SDS011;68477;42.698;23.342;2023-12-29T16:31:28;50.70;;;26.10;;
79076;SDS011;68477;42.698;23.342;2023-12-29T16:33:53;39.80;;;21.77;;
79076;SDS011;68477;42.698;23.342;2023-12-29T16:36:18;41.90;;;20.75;;
79076;SDS011;68477;42.698;23.342;2023-12-29T16:38:48;38.17;;;17.40;;
79076;SDS011;68477;42.698;23.342;2023-12-29T16:41:15;35.78;;;16.80;;
79076;SDS011;68477;42.698;23.342;2023-12-29T16:43:42;30.40;;;13.38;;
79076;SDS011;68477;42.698;23.342;2023-12-29T16:46:07;25.23;;;11.98;;
79076;SDS011;68477;42.698;23.342;2023-12-29T16:48:33;32.08;;;14.63;;
79076;SDS011;68477;42.698;23.342;2023-12-29T16:50:59;33.17;;;14.10;;
79076;SDS011;68477;42.698;23.342;2023-12-29T16:53:25;26.10;;;12.50;;
79076;SDS011;68477;42.698;23.342;2023-12-29T16:55:50;22.88;;;12.05;;
79076;SDS011;68477;42.698;23.342;2023-12-29T16:58:16;20.40;;;11.93;;
79076;SDS011;68477;42.698;23.342;2023-12-29T17:00:46;23.92;;;12.52;;
79076;SDS011;68477;42.698;23.342;2023-12-29T17:03:12;36.88;;;12.75;;
79076;SDS011;68477;42.698;23.342;2023-12-29T17:05:37;24.00;;;12.15;;
79076;SDS011;68477;42.698;23.342;2023-12-29T17:08:03;23.02;;;12.38;;
79076;SDS011;68477;42.698;23.342;2023-12-29T17:10:28;27.25;;;13.60;;
79076;SDS011;68477;42.698;23.342;2023-12-29T17:12:54;31.33;;;12.23;;
79076;SDS011;68477;42.698;23.342;2023-12-29T17:15:19;30.10;;;13.85;;
79076;SDS011;68477;42.698;23.342;2023-12-29T17:17:46;33.83;;;13.27;;
79076;SDS011;68477;42.698;23.342;2023-12-29T17:20:12;32.78;;;14.27;;
79076;SDS011;68477;42.698;23.342;2023-12-29T17:22:37;33.17;;;17.23;;
79076;SDS011;68477;42.698;23.342;2023-12-29T17:25:03;28.95;;;16.05;;
79076;SDS011;68477;42.698;23.342;2023-12-29T17:27:30;36.78;;;17.33;;
79076;SDS011;68477;42.698;23.342;2023-12-29T17:29:56;40.15;;;17.50;;
79076;SDS011;68477;42.698;23.342;2023-12-29T17:32:21;34.97;;;18.85;;
79076;SDS011;68477;42.698;23.342;2023-12-29T17:34:48;33.55;;;18.65;;
79076;SDS011;68477;42.698;23.342;2023-12-29T17:37:14;44.00;;;20.25;;
79076;SDS011;68477;42.698;23.342;2023-12-29T17:39:40;38.40;;;18.70;;
79076;SDS011;68477;42.698;23.342;2023-12-29T17:42:05;37.33;;;19.30;;
79076;SDS011;68477;42.698;23.342;2023-12-29T17:44:33;38.47;;;18.10;;
79076;SDS011;68477;42.698;23.342;2023-12-29T17:46:59;32.45;;;18.63;;
79076;SDS011;68477;42.698;23.342;2023-12-29T17:49:25;37.97;;;18.98;;
79076;SDS011;68477;42.698;23.342;2023-12-29T17:51:53;39.38;;;18.77;;
79076;SDS011;68477;42.698;23.342;2023-12-29T17:54:18;44.92;;;20.45;;
79076;SDS011;68477;42.698;23.342;2023-12-29T17:56:44;44.78;;;21.50;;
79076;SDS011;68477;42.698;23.342;2023-12-29T17:59:11;49.60;;;25.85;;
79076;SDS011;68477;42.698;23.342;2023-12-29T18:01:36;43.80;;;21.20;;
79076;SDS011;68477;42.698;23.342;2023-12-29T18:04:03;45.45;;;22.73;;
79076;SDS011;68477;42.698;23.342;2023-12-29T18:06:29;45.88;;;23.63;;
79076;SDS011;68477;42.698;23.342;2023-12-29T18:08:54;54.50;;;24.85;;
79076;SDS011;68477;42.698;23.342;2023-12-29T18:11:20;62.15;;;34.08;;
79076;SDS011;68477;42.698;23.342;2023-12-29T18:13:46;59.67;;;32.08;;
79076;SDS011;68477;42.698;23.342;2023-12-29T18:16:11;70.82;;;37.40;;
79076;SDS011;68477;42.698;23.342;2023-12-29T18:18:37;69.82;;;35.00;;
79076;SDS011;68477;42.698;23.342;2023-12-29T18:21:04;79.38;;;40.75;;
79076;SDS011;68477;42.698;23.342;2023-12-29T18:23:30;96.70;;;51.92;;
79076;SDS011;68477;42.698;23.342;2023-12-29T18:25:57;100.63;;;51.42;;
79076;SDS011;68477;42.698;23.342;2023-12-29T18:28:25;104.13;;;51.90;;
79076;SDS011;68477;42.698;23.342;2023-12-29T18:30:51;90.10;;;48.47;;
79076;SDS011;68477;42.698;23.342;2023-12-29T18:33:16;99.18;;;48.85;;
79076;SDS011;68477;42.698;23.342;2023-12-29T18:35:42;81.43;;;45.67;;
79076;SDS011;68477;42.698;23.342;2023-12-29T18:38:07;90.88;;;45.65;;
79076;SDS011;68477;42.698;23.342;2023-12-29T18:40:33;86.53;;;48.05;;
79076;SDS011;68477;42.698;23.342;2023-12-29T18:42:59;90.60;;;48.80;;
79076;SDS011;68477;42.698;23.342;2023-12-29T18:45:28;92.35;;;48.70;;
79076;SDS011;68477;42.698;23.342;2023-12-29T18:47:53;91.13;;;47.72;;
79076;SDS011;68477;42.698;23.342;2023-12-29T18:50:19;90.55;;;50.25;;
79076;SDS011;68477;42.698;23.342;2023-12-29T18:52:45;98.35;;;47.38;;
79076;SDS011;68477;42.698;23.342;2023-12-29T18:55:10;96.70;;;53.03;;
79076;SDS011;68477;42.698;23.342;2023-12-29T18:57:36;93.93;;;44.08;;
79076;SDS011;68477;42.698;23.342;2023-12-29T19:00:02;94.93;;;49.47;;
79076;SDS011;68477;42.698;23.342;2023-12-29T19:02:28;85.25;;;44.67;;
79076;SDS011;68477;42.698;23.342;2023-12-29T19:04:54;96.82;;;45.97;;
79076;SDS011;68477;42.698;23.342;2023-12-29T19:07:19;79.90;;;43.30;;
79076;SDS011;68477;42.698;23.342;2023-12-29T19:09:45;81.25;;;42.40;;
79076;SDS011;68477;42.698;23.342;2023-12-29T19:12:11;87.25;;;43.88;;
79076;SDS011;68477;42.698;23.342;2023-12-29T19:14:38;82.45;;;43.10;;
79076;SDS011;68477;42.698;23.342;2023-12-29T19:17:04;83.03;;;41.80;;
79076;SDS011;68477;42.698;23.342;2023-12-29T19:19:31;84.78;;;42.72;;
79076;SDS011;68477;42.698;23.342;2023-12-29T19:21:57;91.65;;;44.72;;
79076;SDS011;68477;42.698;23.342;2023-12-29T19:24:24;76.65;;;40.42;;
79076;SDS011;68477;42.698;23.342;2023-12-29T19:26:49;80.28;;;39.97;;
79076;SDS011;68477;42.698;23.342;2023-12-29T19:29:16;85.72;;;42.03;;
79076;SDS011;68477;42.698;23.342;2023-12-29T19:31:43;74.60;;;40.75;;
79076;SDS011;68477;42.698;23.342;2023-12-29T19:34:10;72.22;;;39.53;;
79076;SDS011;68477;42.698;23.342;2023-12-29T19:36:36;94.68;;;48.00;;
79076;SDS011;68477;42.698;23.342;2023-12-29T19:39:01;81.75;;;40.00;;
79076;SDS011;68477;42.698;23.342;2023-12-29T19:41:31;79.80;;;42.65;;
79076;SDS011;68477;42.698;23.342;2023-12-29T19:43:59;76.05;;;38.75;;
79076;SDS011;68477;42.698;23.342;2023-12-29T19:46:25;90.28;;;46.40;;
79076;SDS011;68477;42.698;23.342;2023-12-29T19:48:50;76.97;;;40.25;;
79076;SDS011;68477;42.698;23.342;2023-12-29T19:51:18;80.93;;;40.63;;
79076;SDS011;68477;42.698;23.342;2023-12-29T19:53:44;89.57;;;46.38;;
79076;SDS011;68477;42.698;23.342;2023-12-29T19:56:10;81.10;;;42.50;;
79076;SDS011;68477;42.698;23.342;2023-12-29T19:58:36;90.28;;;44.42;;
79076;SDS011;68477;42.698;23.342;2023-12-29T20:01:03;98.55;;;46.05;;
79076;SDS011;68477;42.698;23.342;2023-12-29T20:03:29;91.95;;;49.05;;
79076;SDS011;68477;42.698;23.342;2023-12-29T20:05:58;99.80;;;53.03;;
79076;SDS011;68477;42.698;23.342;2023-12-29T20:08:24;112.80;;;62.17;;
79076;SDS011;68477;42.698;23.342;2023-12-29T20:10:49;142.75;;;66.45;;
79076;SDS011;68477;42.698;23.342;2023-12-29T20:13:15;144.13;;;79.13;;
79076;SDS011;68477;42.698;23.342;2023-12-29T20:15:40;137.98;;;74.40;;
79076;SDS011;68477;42.698;23.342;2023-12-29T20:18:08;140.77;;;77.53;;
79076;SDS011;68477;42.698;23.342;2023-12-29T20:20:36;176.20;;;88.75;;
79076;SDS011;68477;42.698;23.342;2023-12-29T20:23:02;187.18;;;100.78;;
79076;SDS011;68477;42.698;23.342;2023-12-29T20:25:29;176.65;;;90.25;;
79076;SDS011;68477;42.698;23.342;2023-12-29T20:27:55;173.60;;;94.68;;
79076;SDS011;68477;42.698;23.342;2023-12-29T20:30:21;164.38;;;89.13;;